Time;durP1;ratioP1;P1;durP2;ratioP2;P2;SDS_P1;SDS_P2;PMS_P1;PMS_P2;Temp;Humidity;BMP_temperature;BMP_pressure;BME280_temperature;BME280_humidity;BME280_pressure;Samples;Min_cycle;Max_cycle;Signal;HPM_P1;HPM_P2
2020/12/04 00:00:25;;;;;;;;;;;;;;;;;;2071433;28;7025;-61
2020/12/04 00:01:27;;;;;;;;;;;;;;;;;;2072283;28;7006;-62
2020/12/04 00:02:29;;;;;;;;;;;;;;;;;;2071222;28;7009;-62
2020/12/04 00:03:31;;;;;;;;;;;;;;;;;;2071061;28;7041;-59
2020/12/04 00:04:33;;;;;;;;;;;;;;;;;;2071034;28;7089;-60
2020/12/04 00:05:35;;;;;;;;;;;;;;;;;;2071004;28;7097;-62
2020/12/04 00:06:37;;;;;;;;;;;;;;;;;;2070895;28;7038;-62
2020/12/04 00:07:39;;;;;;;;;;;;;;;;;;2071110;28;8059;-61
2020/12/04 00:08:41;;;;;;;;;;;;;;;;;;2071329;28;7101;-61
2020/12/04 00:09:43;;;;;;;;;;;;;;;;;;2071565;28;7084;-60
2020/12/04 00:10:45;;;;;;;;;;;;;;;;;;2071137;28;7046;-62
2020/12/04 00:11:47;;;;;;;;;;;;;;;;;;2070900;28;7025;-63
2020/12/04 00:12:49;;;;;;;;;;;;;;;;;;2070629;28;7339;-64
2020/12/04 00:13:51;;;;;;;;;;;;;;;;;;2070995;28;7031;-66
2020/12/04 00:14:53;;;;;;;;;;;;;;;;;;2071112;28;7109;-62
2020/12/04 00:15:57;;;;;;;;;;;;;;;;;;2071668;28;7009;-62
2020/12/04 00:16:59;;;;;;;;;;;;;;;;;;2071162;28;7116;-62
2020/12/04 00:18:01;;;;;;;;;;;;;;;;;;2071045;28;7097;-62
2020/12/04 00:19:03;;;;;;;;;;;;;;;;;;2070615;28;7085;-61
2020/12/04 00:20:05;;;;;;;;;;;;;;;;;;2070893;28;7022;-61
2020/12/04 00:21:07;;;;;;;;;;;;;;;;;;2070870;28;7026;-59
2020/12/04 00:22:09;;;;;;;;;;;;;;;;;;2070775;28;7100;-61
2020/12/04 00:23:11;;;;;;;;;;;;;;;;;;2070377;28;7050;-63
2020/12/04 00:24:13;;;;;;;;;;;;;;;;;;2068645;28;7199;-63
2020/12/04 00:25:15;;;;;;;;;;;;;;;;;;2067820;28;7013;-61
2020/12/04 00:26:17;;;;;;;;;;;;;;;;;;2070869;28;7042;-60
2020/12/04 00:27:19;;;;;;;;;;;;;;;;;;2071228;28;7038;-63
2020/12/04 00:28:21;;;;;;;;;;;;;;;;;;2070956;28;7009;-58
2020/12/04 00:29:24;;;;;;;;;;;;;;;;;;2069557;28;8022;-64
2020/12/04 00:30:26;;;;;;;;;;;;;;;;;;2071011;28;8043;-63
2020/12/04 00:31:28;;;;;;;;;;;;;;;;;;2070761;28;8059;-60
2020/12/04 00:32:30;;;;;;;;;;;;;;;;;;2070750;28;8113;-64
2020/12/04 00:33:32;;;;;;;;;;;;;;;;;;2070783;28;7013;-60
2020/12/04 00:34:34;;;;;;;;;;;;;;;;;;2070741;28;7018;-60
2020/12/04 00:35:36;;;;;;;;;;;;;;;;;;2071072;28;7025;-64
2020/12/04 00:36:38;;;;;;;;;;;;;;;;;;2070896;28;7292;-61
2020/12/04 00:37:40;;;;;;;;;;;;;;;;;;2070206;28;7101;-60
2020/12/04 00:38:41;;;;;;;;;;;;;;;;;;2070438;28;7085;-60
2020/12/04 00:39:43;;;;;;;;;;;;;;;;;;2070936;28;7025;-63
2020/12/04 00:40:45;;;;;;;;;;;;;;;;;;2070523;28;7038;-60
2020/12/04 00:41:48;;;;;;;;;;;;;;;;;;2070829;28;7403;-60
2020/12/04 00:42:49;;;;;;;;;;;;;;;;;;2071279;28;7139;-60
2020/12/04 00:43:52;;;;;;;;;;;;;;;;;;2070173;28;7017;-63
2020/12/04 00:44:54;;;;;;;;;;;;;;;;;;2070468;28;8691;-62
2020/12/04 00:46:05;;;;;;;;;;;;;;;;;;2070500;28;7013;-62
2020/12/04 00:47:07;;;;;;;;;;;;;;;;;;2070561;28;7127;-60
2020/12/04 00:48:09;;;;;;;;;;;;;;;;;;2070654;28;7089;-62
2020/12/04 00:49:10;;;;;;;;;;;;;;;;;;2070891;28;7050;-62
2020/12/04 00:50:13;;;;;;;;;;;;;;;;;;2070974;28;7033;-61
2020/12/04 00:51:15;;;;;;;;;;;;;;;;;;2068500;28;7092;-62
2020/12/04 00:52:17;;;;;;;;;;;;;;;;;;2070738;28;7105;-62
2020/12/04 00:53:19;;;;;;;;;;;;;;;;;;2070410;28;7009;-63
2020/12/04 00:54:21;;;;;;;;;;;;;;;;;;2070651;28;7115;-62
2020/12/04 00:55:23;;;;;;;;;;;;;;;;;;2070638;28;7005;-59
2020/12/04 00:56:32;;;;;;;;;;;;;;;;;;2077762;28;7010;-61
2020/12/04 00:57:34;;;;;;;;;;;;;;;;;;2078707;28;7055;-61
2020/12/04 00:58:36;;;;;;;;;;;;;;;;;;2075195;28;7013;-61
2020/12/04 00:59:37;;;;;;;;;;;;;;;;;;2070456;28;7085;-61
2020/12/04 01:00:39;;;;;;;;;;;;;;;;;;2070945;28;7056;-61
2020/12/04 01:01:41;;;;;;;;;;;;;;;;;;2071243;28;7025;-62
2020/12/04 01:02:43;;;;;;;;;;;;;;;;;;2070126;28;7009;-63
2020/12/04 01:03:45;;;;;;;;;;;;;;;;;;2072918;28;7930;-61
2020/12/04 01:09:26;;;;;;;;;;;;;;;;;;1993070;29;7031;-64
2020/12/04 01:10:28;;;;;;;;;;;;;;;;;;1994196;29;7047;-61
2020/12/04 01:11:31;;;;;;;;;;;;;;;;;;2041909;28;7089;-60
2020/12/04 01:12:33;;;;;;;;;;;;;;;;;;2063274;28;7112;-61
2020/12/04 01:13:35;;;;;;;;;;;;;;;;;;2071218;28;7058;-63
2020/12/04 01:14:37;;;;;;;;;;;;;;;;;;2070582;28;7009;-59
2020/12/04 01:15:39;;;;;;;;;;;;;;;;;;2070702;28;7014;-61
2020/12/04 01:16:41;;;;;;;;;;;;;;;;;;2070718;28;7009;-60
2020/12/04 01:17:43;;;;;;;;;;;;;;;;;;2071024;28;7308;-60
2020/12/04 01:18:45;;;;;;;;;;;;;;;;;;2071112;28;7101;-61
2020/12/04 01:19:47;;;;;;;;;;;;;;;;;;2077375;28;7119;-59
2020/12/04 01:20:49;;;;;;;;;;;;;;;;;;2070289;28;7030;-59
2020/12/04 01:21:51;;;;;;;;;;;;;;;;;;2071558;28;7093;-61
2020/12/04 01:22:53;;;;;;;;;;;;;;;;;;2070913;28;7145;-61
2020/12/04 01:23:55;;;;;;;;;;;;;;;;;;2071082;28;7109;-62
2020/12/04 01:24:57;;;;;;;;;;;;;;;;;;2071094;28;7084;-63
2020/12/04 01:26:00;;;;;;;;;;;;;;;;;;2070990;28;7009;-59
2020/12/04 01:27:02;;;;;;;;;;;;;;;;;;2071152;28;7013;-62
2020/12/04 01:28:04;;;;;;;;;;;;;;;;;;2071248;28;7046;-62
2020/12/04 01:29:06;;;;;;;;;;;;;;;;;;2071074;28;7085;-59
2020/12/04 01:30:08;;;;;;;;;;;;;;;;;;2071558;28;8107;-61
2020/12/04 01:31:10;;;;;;;;;;;;;;;;;;2069823;28;7018;-58
2020/12/04 01:32:12;;;;;;;;;;;;;;;;;;2070879;28;7193;-61
2020/12/04 01:33:15;;;;;;;;;;;;;;;;;;2070748;28;8086;-60
2020/12/04 01:34:16;;;;;;;;;;;;;;;;;;2070910;28;7022;-59
2020/12/04 01:35:18;;;;;;;;;;;;;;;;;;2071090;28;7092;-61
2020/12/04 01:36:20;;;;;;;;;;;;;;;;;;2070018;28;7415;-59
2020/12/04 01:37:22;;;;;;;;;;;;;;;;;;2078706;28;7096;-64
2020/12/04 01:38:24;;;;;;;;;;;;;;;;;;2071164;28;8036;-60
2020/12/04 01:39:26;;;;;;;;;;;;;;;;;;2071247;28;7010;-62
2020/12/04 01:40:31;;;;;;;;;;;;;;;;;;2071348;28;7292;-60
2020/12/04 01:41:33;;;;;;;;;;;;;;;;;;2071390;28;7046;-63
2020/12/04 01:42:35;;;;;;;;;;;;;;;;;;2071336;28;7046;-63
2020/12/04 01:43:37;;;;;;;;;;;;;;;;;;2069797;28;7125;-60
2020/12/04 01:44:54;;;;;;;;;;;;;;;;;;2069571;28;7316;-60
2020/12/04 01:45:57;;;;;;;;;;;;;;;;;;2070963;28;7017;-61
2020/12/04 01:46:59;;;;;;;;;;;;;;;;;;2071237;28;7009;-62
2020/12/04 01:48:05;;;;;;;;;;;;;;;;;;2071118;28;7050;-63
2020/12/04 01:49:07;;;;;;;;;;;;;;;;;;2070678;28;7046;-59
2020/12/04 01:50:09;;;;;;;;;;;;;;;;;;2070746;28;7092;-61
2020/12/04 01:51:12;;;;;;;;;;;;;;;;;;2071026;28;7093;-61
2020/12/04 01:52:18;;;;;;;;;;;;;;;;;;2071302;28;7053;-61
2020/12/04 01:53:21;;;;;;;;;;;;;;;;;;2070723;28;7017;-62
2020/12/04 01:54:23;;;;;;;;;;;;;;;;;;2070807;28;7021;-62
2020/12/04 01:55:26;;;;;;;;;;;;;;;;;;2071099;28;7344;-63
2020/12/04 01:56:30;;;;;;;;;;;;;;;;;;2071186;28;7017;-60
2020/12/04 01:57:34;;;;;;;;;;;;;;;;;;2071447;28;7041;-61
2020/12/04 01:58:36;;;;;;;;;;;;;;;;;;2070796;28;7166;-61
2020/12/04 01:59:38;;;;;;;;;;;;;;;;;;2070971;28;7097;-62
2020/12/04 02:00:40;;;;;;;;;;;;;;;;;;2070533;28;7010;-62
2020/12/04 02:01:44;;;;;;;;;;;;;;;;;;2071286;28;7014;-61
2020/12/04 02:02:46;;;;;;;;;;;;;;;;;;2071196;28;7009;-64
2020/12/04 02:03:48;;;;;;;;;;;;;;;;;;2071131;28;8008;-60
2020/12/04 02:04:58;;;;;;;;;;;;;;;;;;2070644;28;7062;-62
2020/12/04 02:06:03;;;;;;;;;;;;;;;;;;2071024;28;7204;-61
2020/12/04 02:07:11;;;;;;;;;;;;;;;;;;2070647;28;8047;-60
2020/12/04 02:08:23;;;;;;;;;;;;;;;;;;2071023;28;7045;-60
2020/12/04 02:09:39;;;;;;;;;;;;;;;;;;2071090;28;7233;-64
2020/12/04 02:11:03;;;;;;;;;;;;;;;;;;2070762;28;8007;-63
2020/12/04 02:12:07;;;;;;;;;;;;;;;;;;2071256;28;7033;-63
2020/12/04 02:13:09;;;;;;;;;;;;;;;;;;2070851;28;7092;-60
2020/12/04 02:14:12;;;;;;;;;;;;;;;;;;2070722;28;7131;-60
2020/12/04 02:15:22;;;;;;;;;;;;;;;;;;2071346;28;7013;-63
2020/12/04 02:16:24;;;;;;;;;;;;;;;;;;2078877;28;7028;-60
2020/12/04 02:17:31;;;;;;;;;;;;;;;;;;2078425;28;7013;-62
2020/12/04 02:18:36;;;;;;;;;;;;;;;;;;2078900;28;7157;-60
2020/12/04 02:19:40;;;;;;;;;;;;;;;;;;2077050;28;7026;-62
2020/12/04 02:20:42;;;;;;;;;;;;;;;;;;2078689;28;7092;-59
2020/12/04 02:21:45;;;;;;;;;;;;;;;;;;2078897;28;7009;-63
2020/12/04 02:22:47;;;;;;;;;;;;;;;;;;2078496;28;7046;-62
2020/12/04 02:23:55;;;;;;;;;;;;;;;;;;2078974;28;8111;-60
2020/12/04 02:24:57;;;;;;;;;;;;;;;;;;2078472;28;7092;-61
2020/12/04 02:25:59;;;;;;;;;;;;;;;;;;2078467;28;7045;-60
2020/12/04 02:27:01;;;;;;;;;;;;;;;;;;2078730;28;7038;-61
2020/12/04 02:28:03;;;;;;;;;;;;;;;;;;2078748;28;7021;-60
2020/12/04 02:29:08;;;;;;;;;;;;;;;;;;2078742;28;7009;-62
2020/12/04 02:30:12;;;;;;;;;;;;;;;;;;2078853;28;7092;-62
2020/12/04 02:31:14;;;;;;;;;;;;;;;;;;2070809;28;8043;-62
2020/12/04 02:32:16;;;;;;;;;;;;;;;;;;2070885;28;7333;-61
2020/12/04 02:33:18;;;;;;;;;;;;;;;;;;2071342;28;7013;-62
2020/12/04 02:34:20;;;;;;;;;;;;;;;;;;2071064;28;7013;-62
2020/12/04 02:35:22;;;;;;;;;;;;;;;;;;2077408;28;8031;-63
2020/12/04 02:36:24;;;;;;;;;;;;;;;;;;2085541;28;7097;-62
2020/12/04 02:37:28;;;;;;;;;;;;;;;;;;2070706;28;7073;-65
2020/12/04 02:38:30;;;;;;;;;;;;;;;;;;2069653;28;7013;-63
2020/12/04 02:39:33;;;;;;;;;;;;;;;;;;2070507;28;7092;-59
2020/12/04 02:40:35;;;;;;;;;;;;;;;;;;2070821;28;7089;-61
2020/12/04 02:41:36;;;;;;;;;;;;;;;;;;2070551;28;7025;-60
2020/12/04 02:42:41;;;;;;;;;;;;;;;;;;2070820;28;7270;-61
2020/12/04 02:43:43;;;;;;;;;;;;;;;;;;2072489;28;7131;-62
2020/12/04 02:44:45;;;;;;;;;;;;;;;;;;2071712;28;7013;-61
2020/12/04 02:45:47;;;;;;;;;;;;;;;;;;2072323;28;7113;-61
2020/12/04 02:46:49;;;;;;;;;;;;;;;;;;2072199;28;7017;-60
2020/12/04 02:47:51;;;;;;;;;;;;;;;;;;2072931;28;7013;-63
2020/12/04 02:48:53;;;;;;;;;;;;;;;;;;2071605;28;7022;-61
2020/12/04 02:49:55;;;;;;;;;;;;;;;;;;2072542;28;7192;-62
2020/12/04 02:50:57;;;;;;;;;;;;;;;;;;2071870;28;7096;-62
2020/12/04 02:51:59;;;;;;;;;;;;;;;;;;2072274;28;7041;-61
2020/12/04 02:53:01;;;;;;;;;;;;;;;;;;2072009;28;7327;-61
2020/12/04 02:54:03;;;;;;;;;;;;;;;;;;2072358;28;7372;-62
2020/12/04 02:55:05;;;;;;;;;;;;;;;;;;2072193;28;7029;-60
2020/12/04 02:56:07;;;;;;;;;;;;;;;;;;2072582;28;7018;-60
2020/12/04 02:57:09;;;;;;;;;;;;;;;;;;2069894;28;7309;-61
2020/12/04 02:58:11;;;;;;;;;;;;;;;;;;2069778;28;8050;-62
2020/12/04 02:59:14;;;;;;;;;;;;;;;;;;2072355;28;8119;-62
2020/12/04 03:00:16;;;;;;;;;;;;;;;;;;2071919;28;7046;-61
2020/12/04 03:01:18;;;;;;;;;;;;;;;;;;2072305;28;7042;-59
2020/12/04 03:02:19;;;;;;;;;;;;;;;;;;2072262;28;8040;-61
2020/12/04 03:03:21;;;;;;;;;;;;;;;;;;2071768;28;7042;-61
2020/12/04 03:04:23;;;;;;;;;;;;;;;;;;2071945;28;7009;-64
2020/12/04 03:05:25;;;;;;;;;;;;;;;;;;2071831;28;7029;-62
2020/12/04 03:06:27;;;;;;;;;;;;;;;;;;2071986;28;7113;-62
2020/12/04 03:07:29;;;;;;;;;;;;;;;;;;2063152;28;7088;-63
2020/12/04 03:08:33;;;;;;;;;;;;;;;;;;2064172;28;7025;-57
2020/12/04 03:09:36;;;;;;;;;;;;;;;;;;2071812;28;7002;-63
2020/12/04 03:10:37;;;;;;;;;;;;;;;;;;2071861;28;7058;-59
2020/12/04 03:11:39;;;;;;;;;;;;;;;;;;2071942;28;7010;-63
2020/12/04 03:12:41;;;;;;;;;;;;;;;;;;2072161;28;7009;-58
2020/12/04 03:13:43;;;;;;;;;;;;;;;;;;2071615;28;7368;-61
2020/12/04 03:14:45;;;;;;;;;;;;;;;;;;2072154;28;7109;-60
2020/12/04 03:15:47;;;;;;;;;;;;;;;;;;2071322;28;8059;-65
2020/12/04 03:16:49;;;;;;;;;;;;;;;;;;2069726;28;7100;-63
2020/12/04 03:17:51;;;;;;;;;;;;;;;;;;2071705;28;7085;-60
2020/12/04 03:18:53;;;;;;;;;;;;;;;;;;2071660;28;7010;-62
2020/12/04 03:19:55;;;;;;;;;;;;;;;;;;2071354;28;7126;-61
2020/12/04 03:20:57;;;;;;;;;;;;;;;;;;2071666;28;8221;-63
2020/12/04 03:22:00;;;;;;;;;;;;;;;;;;2071403;28;7092;-64
2020/12/04 03:23:02;;;;;;;;;;;;;;;;;;2071578;28;7009;-61
2020/12/04 03:24:04;;;;;;;;;;;;;;;;;;2071583;28;7014;-63
2020/12/04 03:25:06;;;;;;;;;;;;;;;;;;2071787;28;7046;-62
2020/12/04 03:26:07;;;;;;;;;;;;;;;;;;2069607;28;7025;-62
2020/12/04 03:27:10;;;;;;;;;;;;;;;;;;2071666;28;8103;-59
2020/12/04 03:28:12;;;;;;;;;;;;;;;;;;2071557;28;7046;-63
2020/12/04 03:29:14;;;;;;;;;;;;;;;;;;2072052;28;7255;-60
2020/12/04 03:30:16;;;;;;;;;;;;;;;;;;2071829;28;7042;-63
2020/12/04 03:31:18;;;;;;;;;;;;;;;;;;2071518;28;7010;-61
2020/12/04 03:32:20;;;;;;;;;;;;;;;;;;2071433;28;7096;-58
2020/12/04 03:33:22;;;;;;;;;;;;;;;;;;2071672;28;7316;-62
2020/12/04 03:34:24;;;;;;;;;;;;;;;;;;2071662;28;7013;-61
2020/12/04 03:35:26;;;;;;;;;;;;;;;;;;2071949;28;7097;-62
2020/12/04 03:36:28;;;;;;;;;;;;;;;;;;2071956;28;7092;-59
2020/12/04 03:37:30;;;;;;;;;;;;;;;;;;2071935;28;7013;-60
2020/12/04 03:38:32;;;;;;;;;;;;;;;;;;2071433;28;7139;-62
2020/12/04 03:39:35;;;;;;;;;;;;;;;;;;2071861;28;7096;-58
2020/12/04 03:40:37;;;;;;;;;;;;;;;;;;2071317;28;7006;-61
2020/12/04 03:41:39;;;;;;;;;;;;;;;;;;2071691;28;8043;-65
2020/12/04 03:42:41;;;;;;;;;;;;;;;;;;2071511;28;7017;-59
2020/12/04 03:43:43;;;;;;;;;;;;;;;;;;2071828;28;7049;-60
2020/12/04 03:44:45;;;;;;;;;;;;;;;;;;2071842;28;7006;-63
2020/12/04 03:45:47;;;;;;;;;;;;;;;;;;2071831;28;7042;-62
2020/12/04 03:46:49;;;;;;;;;;;;;;;;;;2072038;28;7119;-61
2020/12/04 03:47:50;;;;;;;;;;;;;;;;;;2069620;28;7009;-59
2020/12/04 03:48:52;;;;;;;;;;;;;;;;;;2071342;28;7029;-62
2020/12/04 03:49:55;;;;;;;;;;;;;;;;;;2071735;28;7009;-61
2020/12/04 03:50:58;;;;;;;;;;;;;;;;;;2071337;28;7034;-65
2020/12/04 03:52:00;;;;;;;;;;;;;;;;;;2071514;28;7050;-63
2020/12/04 03:53:02;;;;;;;;;;;;;;;;;;2071353;28;7993;-59
2020/12/04 03:54:04;;;;;;;;;;;;;;;;;;2071460;28;7005;-61
2020/12/04 03:55:06;;;;;;;;;;;;;;;;;;2071286;28;7009;-59
2020/12/04 03:56:09;;;;;;;;;;;;;;;;;;2071252;28;7097;-62
2020/12/04 03:57:11;;;;;;;;;;;;;;;;;;2071172;28;7089;-61
2020/12/04 03:58:13;;;;;;;;;;;;;;;;;;2072189;28;7112;-64
2020/12/04 03:59:15;;;;;;;;;;;;;;;;;;2072007;28;7088;-64
2020/12/04 04:00:17;;;;;;;;;;;;;;;;;;2071502;28;7096;-62
2020/12/04 04:01:19;;;;;;;;;;;;;;;;;;2070976;28;7009;-62
2020/12/04 04:02:21;;;;;;;;;;;;;;;;;;2071164;28;7110;-61
2020/12/04 04:03:23;;;;;;;;;;;;;;;;;;2070756;28;7154;-61
2020/12/04 04:04:25;;;;;;;;;;;;;;;;;;2070940;28;7097;-61
2020/12/04 04:05:27;;;;;;;;;;;;;;;;;;2070699;28;8027;-61
2020/12/04 04:06:29;;;;;;;;;;;;;;;;;;2071342;28;7108;-63
2020/12/04 04:07:31;;;;;;;;;;;;;;;;;;2071093;28;7093;-62
2020/12/04 04:08:33;;;;;;;;;;;;;;;;;;2071543;28;7042;-64
2020/12/04 04:09:35;;;;;;;;;;;;;;;;;;2069030;28;7014;-61
2020/12/04 04:10:37;;;;;;;;;;;;;;;;;;2071396;28;7096;-59
2020/12/04 04:11:39;;;;;;;;;;;;;;;;;;2071885;28;8026;-62
2020/12/04 04:12:41;;;;;;;;;;;;;;;;;;2072019;28;8111;-63
2020/12/04 04:13:43;;;;;;;;;;;;;;;;;;2071221;28;7009;-62
2020/12/04 04:14:45;;;;;;;;;;;;;;;;;;2071398;28;7009;-62
2020/12/04 04:15:46;;;;;;;;;;;;;;;;;;2071403;28;7029;-61
2020/12/04 04:16:49;;;;;;;;;;;;;;;;;;2069511;28;7010;-62
2020/12/04 04:17:51;;;;;;;;;;;;;;;;;;2071182;28;7101;-63
2020/12/04 04:18:53;;;;;;;;;;;;;;;;;;2071491;28;7009;-63
2020/12/04 04:19:55;;;;;;;;;;;;;;;;;;2071186;28;7741;-61
2020/12/04 04:20:57;;;;;;;;;;;;;;;;;;2071449;28;7050;-60
2020/12/04 04:21:59;;;;;;;;;;;;;;;;;;2071200;28;7010;-61
2020/12/04 04:23:01;;;;;;;;;;;;;;;;;;2071337;28;7029;-60
2020/12/04 04:24:03;;;;;;;;;;;;;;;;;;2071339;28;7316;-61
2020/12/04 04:25:05;;;;;;;;;;;;;;;;;;2071133;28;7092;-62
2020/12/04 04:26:07;;;;;;;;;;;;;;;;;;2071774;28;7085;-62
2020/12/04 04:27:10;;;;;;;;;;;;;;;;;;2071950;28;7010;-61
2020/12/04 04:28:12;;;;;;;;;;;;;;;;;;2071487;28;8459;-62
2020/12/04 04:29:14;;;;;;;;;;;;;;;;;;2071364;28;7030;-61
2020/12/04 04:30:16;;;;;;;;;;;;;;;;;;2070962;28;7092;-61
2020/12/04 04:31:18;;;;;;;;;;;;;;;;;;2070833;28;7014;-58
2020/12/04 04:32:20;;;;;;;;;;;;;;;;;;2071043;28;7050;-63
2020/12/04 04:33:22;;;;;;;;;;;;;;;;;;2071015;28;7391;-63
2020/12/04 04:34:24;;;;;;;;;;;;;;;;;;2071163;28;7300;-65
2020/12/04 04:35:26;;;;;;;;;;;;;;;;;;2071140;28;7021;-60
2020/12/04 04:36:28;;;;;;;;;;;;;;;;;;2070915;28;7050;-67
2020/12/04 04:37:30;;;;;;;;;;;;;;;;;;2070866;28;7010;-60
2020/12/04 04:38:32;;;;;;;;;;;;;;;;;;2069094;28;8047;-61
2020/12/04 04:39:34;;;;;;;;;;;;;;;;;;2071619;28;7364;-64
2020/12/04 04:40:37;;;;;;;;;;;;;;;;;;2071735;28;7300;-64
2020/12/04 04:41:39;;;;;;;;;;;;;;;;;;2071145;28;7046;-60
2020/12/04 04:42:42;;;;;;;;;;;;;;;;;;2071091;28;7093;-64
2020/12/04 04:43:44;;;;;;;;;;;;;;;;;;2070928;28;7101;-62
2020/12/04 04:44:47;;;;;;;;;;;;;;;;;;2071324;28;7005;-63
2020/12/04 04:45:49;;;;;;;;;;;;;;;;;;2071246;28;7096;-63
2020/12/04 04:47:04;;;;;;;;;;;;;;;;;;2070923;28;7021;-62
2020/12/04 04:48:10;;;;;;;;;;;;;;;;;;2071154;28;7150;-59
2020/12/04 04:49:26;;;;;;;;;;;;;;;;;;2070963;28;7348;-60
2020/12/04 04:50:28;;;;;;;;;;;;;;;;;;2071469;28;7045;-60
2020/12/04 04:51:30;;;;;;;;;;;;;;;;;;2071126;28;7337;-60
2020/12/04 04:52:34;;;;;;;;;;;;;;;;;;2071151;28;8053;-62
2020/12/04 04:53:36;;;;;;;;;;;;;;;;;;2071331;28;7192;-61
2020/12/04 04:54:46;;;;;;;;;;;;;;;;;;2071125;28;7270;-63
2020/12/04 04:55:48;;;;;;;;;;;;;;;;;;2073463;28;8063;-60
2020/12/04 04:56:51;;;;;;;;;;;;;;;;;;2079365;28;7009;-59
2020/12/04 04:57:57;;;;;;;;;;;;;;;;;;2079335;28;7013;-61
2020/12/04 04:58:59;;;;;;;;;;;;;;;;;;2078876;28;7042;-60
2020/12/04 05:00:01;;;;;;;;;;;;;;;;;;2078918;28;7041;-59
2020/12/04 05:01:03;;;;;;;;;;;;;;;;;;2079472;28;7031;-60
2020/12/04 05:02:05;;;;;;;;;;;;;;;;;;2079155;28;7112;-64
2020/12/04 05:03:08;;;;;;;;;;;;;;;;;;2079492;28;7101;-61
2020/12/04 05:04:10;;;;;;;;;;;;;;;;;;2079243;28;8434;-62
2020/12/04 05:05:12;;;;;;;;;;;;;;;;;;2079764;28;7021;-61
2020/12/04 05:06:29;;;;;;;;;;;;;;;;;;2079080;28;7042;-61
2020/12/04 05:07:34;;;;;;;;;;;;;;;;;;2079172;28;7109;-60
2020/12/04 05:08:36;;;;;;;;;;;;;;;;;;2079275;28;7080;-65
2020/12/04 05:09:38;;;;;;;;;;;;;;;;;;2079909;28;7009;-63
2020/12/04 05:10:40;;;;;;;;;;;;;;;;;;2070463;28;7045;-62
2020/12/04 05:11:56;;;;;;;;;;;;;;;;;;2070243;28;7096;-61
2020/12/04 05:12:59;;;;;;;;;;;;;;;;;;2072064;28;7044;-60
2020/12/04 05:14:15;;;;;;;;;;;;;;;;;;2071181;28;7109;-62
2020/12/04 05:15:21;;;;;;;;;;;;;;;;;;2071433;28;7009;-62
2020/12/04 05:16:29;;;;;;;;;;;;;;;;;;2071644;28;7014;-62
2020/12/04 05:17:31;;;;;;;;;;;;;;;;;;2071670;28;7009;-63
2020/12/04 05:18:38;;;;;;;;;;;;;;;;;;2070866;28;7025;-58
2020/12/04 05:19:42;;;;;;;;;;;;;;;;;;2071341;28;7368;-62
2020/12/04 05:20:51;;;;;;;;;;;;;;;;;;2071219;28;7116;-60
2020/12/04 05:21:54;;;;;;;;;;;;;;;;;;2072155;28;7041;-59
2020/12/04 05:22:58;;;;;;;;;;;;;;;;;;2071104;28;7042;-61
2020/12/04 05:24:00;;;;;;;;;;;;;;;;;;2071805;28;7017;-60
2020/12/04 05:25:13;;;;;;;;;;;;;;;;;;2070907;28;7093;-61
2020/12/04 05:26:27;;;;;;;;;;;;;;;;;;2071513;28;7097;-63
2020/12/04 05:27:31;;;;;;;;;;;;;;;;;;2071543;28;7400;-64
2020/12/04 05:28:35;;;;;;;;;;;;;;;;;;2070299;28;7037;-62
2020/12/04 05:29:37;;;;;;;;;;;;;;;;;;2071331;28;7022;-60
2020/12/04 05:30:41;;;;;;;;;;;;;;;;;;2071049;28;7046;-61
2020/12/04 05:31:43;;;;;;;;;;;;;;;;;;2071083;28;7021;-63
2020/12/04 05:32:45;;;;;;;;;;;;;;;;;;2071067;28;7092;-61
2020/12/04 05:33:47;;;;;;;;;;;;;;;;;;2070931;28;8080;-61
2020/12/04 05:34:49;;;;;;;;;;;;;;;;;;2070614;28;8050;-63
2020/12/04 05:35:52;;;;;;;;;;;;;;;;;;2071403;28;7297;-62
2020/12/04 05:37:03;;;;;;;;;;;;;;;;;;2075735;28;7021;-62
2020/12/04 05:38:06;;;;;;;;;;;;;;;;;;2079431;28;7678;-61
2020/12/04 05:39:08;;;;;;;;;;;;;;;;;;2071380;28;7005;-57
2020/12/04 05:40:22;;;;;;;;;;;;;;;;;;2071340;28;7142;-60
2020/12/04 05:41:25;;;;;;;;;;;;;;;;;;2069909;28;7021;-64
2020/12/04 05:42:34;;;;;;;;;;;;;;;;;;2071201;28;7092;-62
2020/12/04 05:43:38;;;;;;;;;;;;;;;;;;2070821;28;7046;-62
2020/12/04 05:44:53;;;;;;;;;;;;;;;;;;2071003;28;7096;-61
2020/12/04 05:46:10;;;;;;;;;;;;;;;;;;2071083;28;9177;-61
2020/12/04 05:47:14;;;;;;;;;;;;;;;;;;2071285;28;7150;-61
2020/12/04 05:48:16;;;;;;;;;;;;;;;;;;2071359;28;7038;-59
2020/12/04 05:49:18;;;;;;;;;;;;;;;;;;2070793;28;7088;-61
2020/12/04 05:50:20;;;;;;;;;;;;;;;;;;2070644;28;7009;-62
2020/12/04 05:51:27;;;;;;;;;;;;;;;;;;2070675;28;7042;-60
2020/12/04 05:52:28;;;;;;;;;;;;;;;;;;2071227;28;7168;-62
2020/12/04 05:53:30;;;;;;;;;;;;;;;;;;2070995;28;7112;-63
2020/12/04 05:54:32;;;;;;;;;;;;;;;;;;2071045;28;7102;-64
2020/12/04 05:55:36;;;;;;;;;;;;;;;;;;2070951;28;7084;-61
2020/12/04 05:56:39;;;;;;;;;;;;;;;;;;2071250;28;8128;-61
2020/12/04 05:57:52;;;;;;;;;;;;;;;;;;2071199;28;7155;-65
2020/12/04 05:58:55;;;;;;;;;;;;;;;;;;2070798;28;7117;-60
2020/12/04 05:59:58;;;;;;;;;;;;;;;;;;2070598;28;7050;-63
2020/12/04 06:01:03;;;;;;;;;;;;;;;;;;2071147;28;7100;-63
2020/12/04 06:02:05;;;;;;;;;;;;;;;;;;2070833;28;7277;-61
2020/12/04 06:03:07;;;;;;;;;;;;;;;;;;2070504;28;7044;-60
2020/12/04 06:04:09;;;;;;;;;;;;;;;;;;2070488;28;7026;-61
2020/12/04 06:05:13;;;;;;;;;;;;;;;;;;2070641;28;7096;-60
2020/12/04 06:06:33;;;;;;;;;;;;;;;;;;2069286;28;7364;-64
2020/12/04 06:07:35;;;;;;;;;;;;;;;;;;2069171;28;8083;-62
2020/12/04 06:08:41;;;;;;;;;;;;;;;;;;2070893;28;7088;-61
2020/12/04 06:09:42;;;;;;;;;;;;;;;;;;2070566;28;9358;-62
2020/12/04 06:10:45;;;;;;;;;;;;;;;;;;2070663;28;8269;-59
2020/12/04 06:11:47;;;;;;;;;;;;;;;;;;2070711;28;7006;-62
2020/12/04 06:12:53;;;;;;;;;;;;;;;;;;2070461;28;7021;-60
2020/12/04 06:13:57;;;;;;;;;;;;;;;;;;2070902;28;7096;-62
2020/12/04 06:15:20;;;;;;;;;;;;;;;;;;2070819;28;7046;-59
2020/12/04 06:16:21;;;;;;;;;;;;;;;;;;2070158;28;7493;-61
2020/12/04 06:17:29;;;;;;;;;;;;;;;;;;2070715;28;7087;-59
2020/12/04 06:18:31;;;;;;;;;;;;;;;;;;2071535;28;7125;-60
2020/12/04 06:19:35;;;;;;;;;;;;;;;;;;2072350;28;7093;-64
2020/12/04 06:20:41;;;;;;;;;;;;;;;;;;2072415;28;7112;-60
2020/12/04 06:21:44;;;;;;;;;;;;;;;;;;2072589;28;7042;-62
2020/12/04 06:23:06;;;;;;;;;;;;;;;;;;2072896;28;7033;-60
2020/12/04 06:24:08;;;;;;;;;;;;;;;;;;2072782;28;9398;-63
2020/12/04 06:25:10;;;;;;;;;;;;;;;;;;2072206;28;7006;-63
2020/12/04 06:26:13;;;;;;;;;;;;;;;;;;2072110;28;7092;-60
2020/12/04 06:27:33;;;;;;;;;;;;;;;;;;2071957;28;7040;-62
2020/12/04 06:28:39;;;;;;;;;;;;;;;;;;2072358;28;7092;-61
2020/12/04 06:30:00;;;;;;;;;;;;;;;;;;2072020;28;7046;-64
2020/12/04 06:31:05;;;;;;;;;;;;;;;;;;2071806;28;7049;-59
2020/12/04 06:32:26;;;;;;;;;;;;;;;;;;2072146;28;7029;-64
2020/12/04 06:33:29;;;;;;;;;;;;;;;;;;2071493;28;7168;-60
2020/12/04 06:34:42;;;;;;;;;;;;;;;;;;2070277;28;7100;-62
2020/12/04 06:35:44;;;;;;;;;;;;;;;;;;2072128;28;7053;-61
2020/12/04 06:36:47;;;;;;;;;;;;;;;;;;2072980;28;7166;-60
2020/12/04 06:37:49;;;;;;;;;;;;;;;;;;2072624;28;8018;-62
2020/12/04 06:38:51;;;;;;;;;;;;;;;;;;2072211;28;7042;-61
2020/12/04 06:39:53;;;;;;;;;;;;;;;;;;2071173;28;7038;-64
2020/12/04 06:41:15;;;;;;;;;;;;;;;;;;2071469;28;7006;-62
2020/12/04 06:42:30;;;;;;;;;;;;;;;;;;2072955;28;7026;-62
2020/12/04 06:43:36;;;;;;;;;;;;;;;;;;2070476;28;7147;-61
2020/12/04 06:44:38;;;;;;;;;;;;;;;;;;2072175;28;7101;-62
2020/12/04 06:45:47;;;;;;;;;;;;;;;;;;2073077;28;7320;-62
2020/12/04 06:46:50;;;;;;;;;;;;;;;;;;2073038;28;7017;-61
2020/12/04 06:48:11;;;;;;;;;;;;;;;;;;2072703;28;7152;-61
2020/12/04 06:50:42;;;;;;;;;;;;;;;;;;2072119;28;7009;-59
2020/12/04 06:51:54;;;;;;;;;;;;;;;;;;2071436;28;7042;-63
2020/12/04 06:53:07;;;;;;;;;;;;;;;;;;2072091;28;7477;-63
2020/12/04 06:54:09;;;;;;;;;;;;;;;;;;2071890;28;7092;-61
2020/12/04 06:55:11;;;;;;;;;;;;;;;;;;2072102;28;7013;-61
2020/12/04 06:56:15;;;;;;;;;;;;;;;;;;2071634;28;7093;-62
2020/12/04 06:57:18;;;;;;;;;;;;;;;;;;2070269;28;7092;-61
2020/12/04 06:58:21;;;;;;;;;;;;;;;;;;2071902;28;7244;-63
2020/12/04 06:59:24;;;;;;;;;;;;;;;;;;2071225;28;8103;-62
2020/12/04 07:00:26;;;;;;;;;;;;;;;;;;2070715;28;7045;-62
2020/12/04 07:01:29;;;;;;;;;;;;;;;;;;2069354;28;7014;-62
2020/12/04 07:02:39;;;;;;;;;;;;;;;;;;2068777;28;7324;-60
2020/12/04 07:03:44;;;;;;;;;;;;;;;;;;2072043;28;7317;-60
2020/12/04 07:04:50;;;;;;;;;;;;;;;;;;2072084;28;7303;-62
2020/12/04 07:05:53;;;;;;;;;;;;;;;;;;2070828;28;7308;-61
2020/12/04 07:07:01;;;;;;;;;;;;;;;;;;2070839;28;7224;-59
2020/12/04 07:08:05;;;;;;;;;;;;;;;;;;2070622;28;7017;-62
2020/12/04 07:09:07;;;;;;;;;;;;;;;;;;2072484;28;7018;-62
2020/12/04 07:10:09;;;;;;;;;;;;;;;;;;2069876;28;7113;-64
2020/12/04 07:11:11;;;;;;;;;;;;;;;;;;2071538;28;7121;-60
2020/12/04 07:12:15;;;;;;;;;;;;;;;;;;2071400;28;7089;-59
2020/12/04 07:13:17;;;;;;;;;;;;;;;;;;2071794;28;7046;-62
2020/12/04 07:14:23;;;;;;;;;;;;;;;;;;2071794;28;7009;-62
2020/12/04 07:15:26;;;;;;;;;;;;;;;;;;2071371;28;8093;-62
2020/12/04 07:16:28;;;;;;;;;;;;;;;;;;2068494;28;7113;-59
2020/12/04 07:17:30;;;;;;;;;;;;;;;;;;2070540;28;7013;-62
2020/12/04 07:18:33;;;;;;;;;;;;;;;;;;2070547;28;7315;-61
2020/12/04 07:19:35;;;;;;;;;;;;;;;;;;2069152;28;7088;-60
2020/12/04 07:20:37;;;;;;;;;;;;;;;;;;2068837;28;7017;-58
2020/12/04 07:21:40;;;;;;;;;;;;;;;;;;2070249;28;7046;-59
2020/12/04 07:22:42;;;;;;;;;;;;;;;;;;2069444;28;7050;-62
2020/12/04 07:23:44;;;;;;;;;;;;;;;;;;2071836;28;7042;-58
2020/12/04 07:24:47;;;;;;;;;;;;;;;;;;2070259;28;7368;-60
2020/12/04 07:25:49;;;;;;;;;;;;;;;;;;2068888;28;7017;-60
2020/12/04 07:26:55;;;;;;;;;;;;;;;;;;2070492;28;7030;-62
2020/12/04 07:27:58;;;;;;;;;;;;;;;;;;2068966;28;7013;-63